createdAt,value
2017-08-18T00:02:03.249Z,17.10
2017-08-18T00:04:30.796Z,17.10
2017-08-18T00:06:58.358Z,17.10
2017-08-18T00:09:25.894Z,17.10
2017-08-18T00:11:53.450Z,17.10
2017-08-18T00:14:20.995Z,17.10
2017-08-18T00:16:48.538Z,17.20
2017-08-18T00:19:16.101Z,17.10
2017-08-18T00:21:43.666Z,17.10
2017-08-18T00:24:11.213Z,17.10
2017-08-18T00:26:38.759Z,17.10
2017-08-18T00:29:06.316Z,17.00
2017-08-18T00:31:33.867Z,17.00
2017-08-18T00:34:01.414Z,16.90
2017-08-18T00:36:28.979Z,16.90
2017-08-18T00:38:56.504Z,17.00
2017-08-18T00:41:24.040Z,16.90
2017-08-18T00:43:51.566Z,16.90
2017-08-18T00:46:19.091Z,16.90
2017-08-18T00:48:46.621Z,16.80
2017-08-18T00:51:14.169Z,16.80
2017-08-18T00:53:41.733Z,16.90
2017-08-18T00:56:09.274Z,16.90
2017-08-18T00:58:36.822Z,16.90
2017-08-18T01:01:04.354Z,17.00
2017-08-18T01:03:31.878Z,17.00
2017-08-18T01:05:59.449Z,16.90
2017-08-18T01:08:27.014Z,16.70
2017-08-18T01:10:54.547Z,16.70
2017-08-18T01:13:22.078Z,16.70
2017-08-18T01:15:49.649Z,16.70
2017-08-18T01:18:17.191Z,16.70
2017-08-18T01:20:44.754Z,16.70
2017-08-18T01:23:12.287Z,16.70
2017-08-18T01:25:39.832Z,16.70
2017-08-18T01:28:07.393Z,16.90
2017-08-18T01:30:35.695Z,17.00
2017-08-18T01:33:03.232Z,16.90
2017-08-18T01:35:30.747Z,17.00
2017-08-18T01:37:58.618Z,17.00
2017-08-18T01:40:26.141Z,17.10
2017-08-18T01:42:53.667Z,17.10
2017-08-18T01:45:21.211Z,17.20
2017-08-18T01:47:48.727Z,17.20
2017-08-18T01:50:16.732Z,17.20
2017-08-18T01:52:44.258Z,17.20
2017-08-18T01:55:11.783Z,17.20
2017-08-18T01:57:39.313Z,17.10
2017-08-18T02:00:06.818Z,17.10
2017-08-18T02:02:34.383Z,17.00
2017-08-18T02:05:01.941Z,17.00
2017-08-18T02:07:29.500Z,16.90
2017-08-18T02:09:57.025Z,16.90
2017-08-18T02:12:25.346Z,16.80
2017-08-18T02:14:52.899Z,16.80
2017-08-18T02:17:20.436Z,16.80
2017-08-18T02:19:47.968Z,16.80
2017-08-18T02:22:15.502Z,16.80
2017-08-18T02:24:43.451Z,16.80
2017-08-18T02:27:10.995Z,16.80
2017-08-18T02:29:38.536Z,16.80
2017-08-18T02:32:06.085Z,16.80
2017-08-18T02:34:33.622Z,16.90
2017-08-18T02:37:01.401Z,16.80
2017-08-18T02:39:28.940Z,16.80
2017-08-18T02:41:56.468Z,16.80
2017-08-18T02:44:24.007Z,16.80
2017-08-18T02:46:51.535Z,16.90
2017-08-18T02:49:19.060Z,17.00
2017-08-18T02:51:46.701Z,17.00
2017-08-18T02:54:15.361Z,17.10
2017-08-18T02:56:42.896Z,17.20
2017-08-18T02:59:10.704Z,17.20
2017-08-18T03:01:38.252Z,17.30
2017-08-18T03:04:05.780Z,17.30
2017-08-18T03:06:33.325Z,17.30
2017-08-18T03:09:00.879Z,17.40
2017-08-18T03:11:28.418Z,17.40
2017-08-18T03:13:55.949Z,17.40
2017-08-18T03:16:23.591Z,17.50
2017-08-18T03:18:51.137Z,17.50
2017-08-18T03:21:19.445Z,17.50
2017-08-18T03:23:46.977Z,17.50
2017-08-18T03:26:14.525Z,17.50
2017-08-18T03:28:42.057Z,17.70
2017-08-18T03:31:09.860Z,17.80
2017-08-18T03:33:37.389Z,18.00
2017-08-18T03:36:04.924Z,18.20
2017-08-18T03:38:32.523Z,18.30
2017-08-18T03:41:00.480Z,18.40
2017-08-18T03:43:27.994Z,18.60
2017-08-18T03:45:55.524Z,18.60
2017-08-18T03:48:23.349Z,18.60
2017-08-18T03:50:50.869Z,18.70
2017-08-18T03:53:18.433Z,18.70
2017-08-18T03:55:46.003Z,18.70
2017-08-18T03:58:13.554Z,18.70
2017-08-18T04:00:41.295Z,18.70
2017-08-18T04:03:08.819Z,18.70
2017-08-18T04:05:36.374Z,18.80
2017-08-18T04:08:03.913Z,18.80
2017-08-18T04:10:31.526Z,18.80
2017-08-18T04:12:59.056Z,18.80
2017-08-18T04:15:26.598Z,18.80
2017-08-18T04:17:54.141Z,18.80
2017-08-18T04:20:21.673Z,18.80
2017-08-18T04:22:49.465Z,18.80
2017-08-18T04:25:17.009Z,18.80
2017-08-18T04:27:44.572Z,18.70
2017-08-18T04:30:12.126Z,18.70
2017-08-18T04:32:39.659Z,18.60
2017-08-18T04:35:07.197Z,18.60
2017-08-18T04:37:34.750Z,18.60
2017-08-18T04:40:02.308Z,18.60
2017-08-18T04:42:29.829Z,18.50
2017-08-18T04:44:57.380Z,18.50
2017-08-18T04:47:24.904Z,18.50
2017-08-18T04:49:52.443Z,18.40
2017-08-18T04:52:20.018Z,18.40
2017-08-18T04:54:47.561Z,18.40
2017-08-18T04:57:15.105Z,18.30
2017-08-18T04:59:42.621Z,18.40
2017-08-18T05:02:10.156Z,18.40
2017-08-18T05:04:37.698Z,18.30
2017-08-18T05:07:05.229Z,18.40
2017-08-18T05:09:32.756Z,18.40
2017-08-18T05:12:00.310Z,18.40
2017-08-18T05:14:27.836Z,18.40
2017-08-18T05:16:55.369Z,18.40
2017-08-18T05:19:22.915Z,18.50
2017-08-18T05:21:50.458Z,18.50
2017-08-18T05:24:18.030Z,18.50
2017-08-18T05:26:45.568Z,18.50
2017-08-18T05:29:13.106Z,18.60
2017-08-18T05:31:40.669Z,18.70
2017-08-18T05:34:08.202Z,18.70
2017-08-18T05:36:36.181Z,18.70
2017-08-18T05:39:03.714Z,18.70
2017-08-18T05:41:31.250Z,18.70
2017-08-18T05:43:58.798Z,18.70
2017-08-18T05:46:26.362Z,18.70
2017-08-18T05:48:53.960Z,18.70
2017-08-18T05:51:21.740Z,18.80
2017-08-18T05:53:49.636Z,18.70
2017-08-18T05:56:18.132Z,18.90
2017-08-18T05:58:46.192Z,18.80
2017-08-18T06:01:13.958Z,18.80
2017-08-18T06:03:42.995Z,18.80
2017-08-18T06:06:11.169Z,18.80
2017-08-18T06:08:38.924Z,18.80
2017-08-18T06:11:07.107Z,18.90
2017-08-18T06:13:41.115Z,18.90
2017-08-18T06:16:18.342Z,18.80
2017-08-18T06:18:52.174Z,18.80
2017-08-18T06:21:26.584Z,18.70
2017-08-18T06:23:54.517Z,18.70
2017-08-18T06:26:22.502Z,18.70
2017-08-18T06:28:50.437Z,18.70
2017-08-18T06:31:17.979Z,18.70
2017-08-18T06:33:45.521Z,18.80
2017-08-18T06:36:13.322Z,18.80
2017-08-18T06:38:41.151Z,18.80
2017-08-18T06:41:09.222Z,18.80
2017-08-18T06:43:37.123Z,18.70
2017-08-18T06:46:04.714Z,18.70
2017-08-18T06:48:32.246Z,18.70
2017-08-18T06:51:00.296Z,18.70
2017-08-18T06:53:27.837Z,18.70
2017-08-18T06:55:55.367Z,18.60
2017-08-18T06:58:22.918Z,18.50
2017-08-18T07:00:50.451Z,18.50
2017-08-18T07:03:17.995Z,18.60
2017-08-18T07:05:45.555Z,18.60
2017-08-18T07:08:13.088Z,18.60
2017-08-18T07:10:40.624Z,18.60
2017-08-18T07:13:08.175Z,18.60
2017-08-18T07:15:35.720Z,18.70
2017-08-18T07:18:03.263Z,18.60
2017-08-18T07:20:30.821Z,18.70
2017-08-18T07:22:58.358Z,18.70
2017-08-18T07:25:26.168Z,18.70
2017-08-18T07:27:53.884Z,18.70
2017-08-18T07:30:21.400Z,18.70
2017-08-18T07:32:48.950Z,18.80
2017-08-18T07:35:16.498Z,18.80
2017-08-18T07:37:44.099Z,18.90
2017-08-18T07:40:11.638Z,19.00
2017-08-18T07:42:39.468Z,19.00
2017-08-18T07:45:07.005Z,19.00
2017-08-18T07:47:34.553Z,19.20
2017-08-18T07:50:02.114Z,19.20
2017-08-18T07:52:29.656Z,19.30
2017-08-18T07:54:57.209Z,19.40
2017-08-18T07:57:25.514Z,19.60
2017-08-18T07:59:53.325Z,19.50
2017-08-18T08:02:20.881Z,19.60
2017-08-18T08:04:48.439Z,19.60
2017-08-18T08:07:16.007Z,19.60
2017-08-18T08:09:43.592Z,19.60
2017-08-18T08:12:11.146Z,19.70
2017-08-18T08:14:38.684Z,19.80
2017-08-18T08:17:06.576Z,19.90
2017-08-18T08:19:34.881Z,20.00
2017-08-18T08:22:02.430Z,20.00
2017-08-18T08:24:29.987Z,19.90
2017-08-18T08:26:57.525Z,19.90
2017-08-18T08:29:25.061Z,19.90
2017-08-18T08:31:52.589Z,19.90
2017-08-18T08:34:20.134Z,19.90
2017-08-18T08:36:47.690Z,19.90
2017-08-18T08:39:15.238Z,19.70
2017-08-18T08:41:42.792Z,19.80
2017-08-18T08:44:10.333Z,19.70
2017-08-18T08:46:37.872Z,19.60
2017-08-18T08:49:05.405Z,19.60
2017-08-18T08:51:32.933Z,19.70
2017-08-18T08:54:00.473Z,19.80
2017-08-18T08:56:28.027Z,19.90
2017-08-18T08:58:55.552Z,20.10
2017-08-18T09:01:23.081Z,20.10
2017-08-18T09:03:50.878Z,20.10
2017-08-18T09:06:19.139Z,20.40
2017-08-18T09:08:46.672Z,20.60
2017-08-18T09:11:14.217Z,20.70
2017-08-18T09:13:41.762Z,20.90
2017-08-18T09:16:09.386Z,21.20
2017-08-18T09:18:36.910Z,21.40
2017-08-18T09:21:04.723Z,21.60
2017-08-18T09:23:32.254Z,21.70
2017-08-18T09:25:59.798Z,21.60
2017-08-18T09:28:28.147Z,21.50
2017-08-18T09:30:55.697Z,21.50
2017-08-18T09:33:23.243Z,21.60
2017-08-18T09:35:50.793Z,21.70
2017-08-18T09:38:18.685Z,21.70
2017-08-18T09:40:46.204Z,21.70
2017-08-18T09:43:13.732Z,21.70
2017-08-18T09:45:41.273Z,21.70
2017-08-18T09:48:20.469Z,21.80
2017-08-18T09:50:59.888Z,22.00
2017-08-18T09:56:39.558Z,22.40
2017-08-18T09:59:13.394Z,22.40
2017-08-18T10:01:40.961Z,22.40
2017-08-18T10:04:08.553Z,22.50
2017-08-18T10:06:36.141Z,22.40
2017-08-18T10:09:03.710Z,22.70
2017-08-18T10:11:31.616Z,22.60
2017-08-18T10:13:59.260Z,22.90
2017-08-18T10:16:26.850Z,23.40
2017-08-18T10:18:54.387Z,23.60
2017-08-18T10:21:21.994Z,23.70
2017-08-18T10:23:49.632Z,23.70
2017-08-18T10:26:17.178Z,23.70
2017-08-18T10:28:44.991Z,23.70
2017-08-18T10:31:12.692Z,23.50
2017-08-18T10:33:40.324Z,23.30
2017-08-18T10:36:07.961Z,23.20
2017-08-18T10:38:35.502Z,23.20
2017-08-18T10:41:03.074Z,23.20
2017-08-18T10:43:30.719Z,23.20
2017-08-18T10:45:58.268Z,23.20
2017-08-18T10:48:25.813Z,23.30
2017-08-18T10:50:53.373Z,23.30
2017-08-18T10:53:20.945Z,23.10
2017-08-18T10:55:48.495Z,23.00
2017-08-18T10:58:16.045Z,22.90
2017-08-18T11:00:43.572Z,22.70
2017-08-18T11:03:11.495Z,22.60
2017-08-18T11:05:39.036Z,22.60
2017-08-18T11:08:06.560Z,22.60
2017-08-18T11:10:34.124Z,22.60
2017-08-18T11:13:01.689Z,22.70
2017-08-18T11:15:29.604Z,22.70
2017-08-18T11:17:57.202Z,22.70
2017-08-18T11:20:25.225Z,22.90
2017-08-18T11:22:52.786Z,23.20
2017-08-18T11:25:20.350Z,23.20
2017-08-18T11:27:47.910Z,23.20
2017-08-18T11:30:15.439Z,23.40
2017-08-18T11:32:42.999Z,23.40
2017-08-18T11:35:10.552Z,23.60
2017-08-18T11:37:38.538Z,23.70
2017-08-18T11:40:06.077Z,23.90
2017-08-18T11:42:33.606Z,23.90
2017-08-18T11:45:01.154Z,23.80
2017-08-18T11:47:28.721Z,24.00
2017-08-18T11:49:56.273Z,24.00
2017-08-18T11:52:23.828Z,23.70
2017-08-18T11:54:51.388Z,23.60
2017-08-18T11:57:18.917Z,23.50
2017-08-18T11:59:46.467Z,23.20
2017-08-18T12:02:14.090Z,22.80
2017-08-18T12:04:41.662Z,22.70
2017-08-18T12:07:09.220Z,22.70
2017-08-18T12:09:36.785Z,22.70
2017-08-18T12:12:04.338Z,22.80
2017-08-18T12:14:31.875Z,22.70
2017-08-18T12:16:59.436Z,22.60
2017-08-18T12:19:26.995Z,22.40
2017-08-18T12:21:54.549Z,22.40
2017-08-18T12:24:22.130Z,22.40
2017-08-18T12:26:49.672Z,22.50
2017-08-18T12:29:17.243Z,22.50
2017-08-18T12:31:44.780Z,22.60
2017-08-18T12:34:12.336Z,22.60
2017-08-18T12:36:39.936Z,22.70
2017-08-18T12:39:07.490Z,22.80
2017-08-18T12:41:35.038Z,22.90
2017-08-18T12:44:02.572Z,22.90
2017-08-18T12:46:30.375Z,22.90
2017-08-18T12:48:57.900Z,23.00
2017-08-18T12:51:25.465Z,23.10
2017-08-18T12:53:53.028Z,23.10
2017-08-18T12:56:20.546Z,23.10
2017-08-18T12:58:48.093Z,23.20
2017-08-18T13:01:15.643Z,23.40
2017-08-18T13:03:43.618Z,23.50
2017-08-18T13:06:11.156Z,23.60
2017-08-18T13:08:38.709Z,23.60
2017-08-18T13:11:06.297Z,23.50
2017-08-18T13:13:33.834Z,23.00
2017-08-18T13:16:01.375Z,22.50
2017-08-18T13:18:28.912Z,22.10
2017-08-18T13:20:56.862Z,21.70
2017-08-18T13:23:24.386Z,21.30
2017-08-18T13:25:51.950Z,20.80
2017-08-18T13:28:19.518Z,20.30
2017-08-18T13:30:47.059Z,19.60
2017-08-18T13:33:14.675Z,18.80
2017-08-18T13:35:42.214Z,18.00
2017-08-18T13:38:10.066Z,17.60
2017-08-18T13:40:37.697Z,17.30
2017-08-18T13:43:05.237Z,17.20
2017-08-18T13:45:32.815Z,17.20
2017-08-18T13:48:00.360Z,17.10
2017-08-18T13:50:28.690Z,17.10
2017-08-18T13:52:56.236Z,17.10
2017-08-18T13:55:24.139Z,17.10
2017-08-18T13:57:51.674Z,17.10
2017-08-18T14:00:19.207Z,17.10
2017-08-18T14:02:46.773Z,17.10
2017-08-18T14:05:14.327Z,17.10
2017-08-18T14:07:41.895Z,17.00
2017-08-18T14:10:09.439Z,16.90
2017-08-18T14:12:37.339Z,17.00
2017-08-18T14:15:07.300Z,17.00
2017-08-18T14:17:34.864Z,17.00
2017-08-18T14:20:02.413Z,17.20
2017-08-18T14:22:30.005Z,17.10
2017-08-18T14:25:03.339Z,17.10
2017-08-18T14:27:36.434Z,17.20
2017-08-18T14:30:04.821Z,17.30
2017-08-18T14:32:32.442Z,17.20
2017-08-18T14:35:00.323Z,17.20
2017-08-18T14:37:27.924Z,17.20
2017-08-18T14:39:58.573Z,17.20
2017-08-18T14:42:26.188Z,17.20
2017-08-18T14:44:53.777Z,17.20
2017-08-18T14:47:21.363Z,17.10
2017-08-18T14:49:48.960Z,17.10
2017-08-18T14:52:16.805Z,17.00
2017-08-18T14:54:44.484Z,17.00
2017-08-18T14:57:12.083Z,16.90
2017-08-18T14:59:39.710Z,16.90
2017-08-18T15:02:07.280Z,20.70
2017-08-18T15:04:35.126Z,16.90
2017-08-18T15:07:02.684Z,17.00
2017-08-18T15:09:30.264Z,17.00
2017-08-18T15:11:57.868Z,17.00
2017-08-18T15:14:25.462Z,17.10
2017-08-18T15:16:53.063Z,17.00
2017-08-18T15:19:21.052Z,16.90
2017-08-18T15:21:48.706Z,16.90
2017-08-18T15:24:16.375Z,16.80
2017-08-18T15:26:44.054Z,16.80
2017-08-18T15:29:11.668Z,16.70
2017-08-18T15:31:39.248Z,16.70
2017-08-18T15:34:06.838Z,16.70
2017-08-18T15:36:34.418Z,16.70
2017-08-18T15:39:02.305Z,16.60
2017-08-18T15:41:29.887Z,16.60
2017-08-18T15:43:57.425Z,16.60
2017-08-18T15:46:25.018Z,16.50
2017-08-18T15:48:52.585Z,16.50
2017-08-18T15:51:20.136Z,16.50
2017-08-18T15:53:47.703Z,16.50
2017-08-18T15:56:15.382Z,16.50
2017-08-18T15:58:42.923Z,16.40
2017-08-18T16:01:11.002Z,16.40
2017-08-18T16:03:38.553Z,16.30
2017-08-18T16:06:06.114Z,16.30
2017-08-18T16:08:33.684Z,16.30
2017-08-18T16:11:01.244Z,16.20
2017-08-18T16:13:28.827Z,16.20
2017-08-18T16:15:56.365Z,16.20
2017-08-18T16:18:23.934Z,16.10
2017-08-18T16:20:51.494Z,16.10
2017-08-18T16:23:19.038Z,16.10
2017-08-18T16:25:46.608Z,16.10
2017-08-18T16:28:14.149Z,16.00
2017-08-18T16:30:41.718Z,16.00
2017-08-18T16:33:09.271Z,16.00
2017-08-18T16:35:36.917Z,16.00
2017-08-18T16:38:04.479Z,15.90
2017-08-18T16:40:32.025Z,15.90
2017-08-18T16:43:00.338Z,16.00
2017-08-18T16:45:27.879Z,16.00
2017-08-18T16:47:55.430Z,16.00
2017-08-18T16:50:23.718Z,16.10
2017-08-18T16:52:51.277Z,16.10
2017-08-18T16:55:18.844Z,16.10
2017-08-18T16:57:46.411Z,16.10
2017-08-18T17:00:13.980Z,16.10
2017-08-18T17:02:41.529Z,16.00
2017-08-18T17:05:09.094Z,16.10
2017-08-18T17:07:37.022Z,16.10
2017-08-18T17:10:04.609Z,16.10
2017-08-18T17:12:32.165Z,16.20
2017-08-18T17:14:59.747Z,16.20
2017-08-18T17:17:27.347Z,16.20
2017-08-18T17:19:54.933Z,16.20
2017-08-18T17:22:22.480Z,16.20
2017-08-18T17:24:50.438Z,16.10
2017-08-18T17:27:17.992Z,16.10
2017-08-18T17:29:45.533Z,16.10
2017-08-18T17:32:13.098Z,16.20
2017-08-18T17:34:40.654Z,16.20
2017-08-18T17:37:08.215Z,16.20
2017-08-18T17:39:35.779Z,16.20
2017-08-18T17:42:03.679Z,16.20
2017-08-18T17:44:31.259Z,16.20
2017-08-18T17:46:58.806Z,16.10
2017-08-18T17:49:26.405Z,16.10
2017-08-18T17:51:53.958Z,16.20
2017-08-18T17:54:22.621Z,16.20
2017-08-18T17:56:50.207Z,16.20
2017-08-18T17:59:17.780Z,16.20
2017-08-18T18:01:45.917Z,16.30
2017-08-18T18:04:13.477Z,16.30
2017-08-18T18:06:41.061Z,16.40
2017-08-18T18:09:08.640Z,16.30
2017-08-18T18:11:36.227Z,16.40
2017-08-18T18:14:03.851Z,16.40
2017-08-18T18:16:31.421Z,16.40
2017-08-18T18:18:59.087Z,16.30
2017-08-18T18:21:26.711Z,16.30
2017-08-18T18:23:54.307Z,16.20
2017-08-18T18:26:22.997Z,16.10
2017-08-18T18:28:50.580Z,16.10
2017-08-18T18:31:18.122Z,16.00
2017-08-18T18:33:46.434Z,16.00
2017-08-18T18:36:14.036Z,15.90
2017-08-18T18:38:41.593Z,15.90
2017-08-18T18:41:09.173Z,15.90
2017-08-18T18:43:36.775Z,15.90
2017-08-18T18:46:04.621Z,15.90
2017-08-18T18:48:32.243Z,15.80
2017-08-18T18:50:59.803Z,15.80
2017-08-18T18:53:27.357Z,15.70
2017-08-18T18:55:54.906Z,15.70
2017-08-18T18:58:22.475Z,15.60
2017-08-18T19:00:50.042Z,15.60
2017-08-18T19:03:17.609Z,15.50
2017-08-18T19:05:45.150Z,15.50
2017-08-18T19:08:13.149Z,15.40
2017-08-18T19:10:41.468Z,15.40
2017-08-18T19:13:09.032Z,15.40
2017-08-18T19:15:36.621Z,15.40
2017-08-18T19:18:04.191Z,15.40
2017-08-18T19:20:31.774Z,15.30
2017-08-18T19:22:59.421Z,15.30
2017-08-18T19:25:27.775Z,15.30
2017-08-18T19:27:56.518Z,15.30
2017-08-18T19:30:24.333Z,15.30
2017-08-18T19:32:52.105Z,15.30
2017-08-18T19:35:20.690Z,15.40
2017-08-18T19:37:48.708Z,15.40
2017-08-18T19:40:16.393Z,15.50
2017-08-18T19:42:44.085Z,15.40
2017-08-18T19:45:11.861Z,15.50
2017-08-18T19:47:39.475Z,15.40
2017-08-18T19:50:07.167Z,15.50
2017-08-18T19:52:34.916Z,15.50
2017-08-18T19:55:02.826Z,15.60
2017-08-18T19:57:30.509Z,15.60
2017-08-18T19:59:58.289Z,15.60
2017-08-18T20:02:25.954Z,15.50
2017-08-18T20:04:53.877Z,15.50
2017-08-18T20:07:21.556Z,15.40
2017-08-18T20:09:49.248Z,15.40
2017-08-18T20:12:17.084Z,15.50
2017-08-18T20:14:44.906Z,15.50
2017-08-18T20:17:12.576Z,15.50
2017-08-18T20:19:40.303Z,15.50
2017-08-18T20:22:08.142Z,15.60
2017-08-18T20:24:35.898Z,15.60
2017-08-18T20:27:03.576Z,15.60
2017-08-18T20:29:31.550Z,15.60
2017-08-18T20:31:59.334Z,15.50
2017-08-18T20:34:27.052Z,15.70
2017-08-18T20:36:54.725Z,15.60
2017-08-18T20:39:22.361Z,15.50
2017-08-18T20:41:50.486Z,15.60
2017-08-18T20:44:18.292Z,15.50
2017-08-18T20:46:46.217Z,15.40
2017-08-18T20:49:14.002Z,15.40
2017-08-18T20:51:41.636Z,15.40
2017-08-18T20:54:09.917Z,15.30
2017-08-18T20:56:37.615Z,15.30
2017-08-18T20:59:05.713Z,15.30
2017-08-18T21:01:33.414Z,15.30
2017-08-18T21:04:01.430Z,15.20
2017-08-18T21:06:29.136Z,15.30
2017-08-18T21:08:56.944Z,15.30
2017-08-18T21:11:25.359Z,15.30
2017-08-18T21:13:53.108Z,15.20
2017-08-18T21:16:20.934Z,15.40
2017-08-18T21:18:48.568Z,15.20
2017-08-18T21:21:16.491Z,15.20
2017-08-18T21:23:44.112Z,15.00
2017-08-18T21:26:11.808Z,15.10
2017-08-18T21:28:39.435Z,15.10
2017-08-18T21:31:07.093Z,15.10
2017-08-18T21:33:34.819Z,15.00
2017-08-18T21:36:02.386Z,14.90
2017-08-18T21:38:30.033Z,14.90
2017-08-18T21:40:57.626Z,14.90
2017-08-18T21:43:25.209Z,14.90
2017-08-18T21:45:52.828Z,14.80
2017-08-18T21:48:20.378Z,14.80
2017-08-18T21:50:48.361Z,14.80
2017-08-18T21:53:16.152Z,14.80
2017-08-18T21:55:43.782Z,14.00
2017-08-18T21:58:11.373Z,14.70
2017-08-18T22:00:38.952Z,14.70
2017-08-18T22:03:06.586Z,14.60
2017-08-18T22:05:34.261Z,14.70
2017-08-18T22:08:01.873Z,14.60
2017-08-18T22:10:29.447Z,14.60
2017-08-18T22:12:58.041Z,13.60
2017-08-18T22:15:25.637Z,14.50
2017-08-18T22:17:53.197Z,14.40
2017-08-18T22:20:20.786Z,14.40
2017-08-18T22:22:48.354Z,14.40
2017-08-18T22:25:15.937Z,14.30
2017-08-18T22:27:43.533Z,14.30
2017-08-18T22:30:11.134Z,14.30
2017-08-18T22:32:38.689Z,14.30
2017-08-18T22:35:06.259Z,14.90
2017-08-18T22:37:33.847Z,14.20
2017-08-18T22:40:01.418Z,14.20
2017-08-18T22:42:28.991Z,14.20
2017-08-18T22:44:56.546Z,14.10
2017-08-18T22:47:24.493Z,14.10
2017-08-18T22:49:52.144Z,14.10
2017-08-18T22:52:19.723Z,14.10
2017-08-18T22:54:47.300Z,14.00
2017-08-18T22:57:14.851Z,14.00
2017-08-18T22:59:42.441Z,14.00
2017-08-18T23:02:09.981Z,14.00
2017-08-18T23:04:37.642Z,14.00
2017-08-18T23:07:05.195Z,13.90
2017-08-18T23:09:32.734Z,14.00
2017-08-18T23:12:00.309Z,13.90
2017-08-18T23:14:27.841Z,13.80
2017-08-18T23:16:55.412Z,13.90
2017-08-18T23:19:23.122Z,13.70
2017-08-18T23:21:50.811Z,13.70
2017-08-18T23:24:18.401Z,13.60
2017-08-18T23:26:45.941Z,13.60
2017-08-18T23:29:14.273Z,13.50
2017-08-18T23:31:41.808Z,13.50
2017-08-18T23:34:09.446Z,13.40
2017-08-18T23:36:37.010Z,13.40
2017-08-18T23:39:04.573Z,13.40
2017-08-18T23:41:32.150Z,13.30
2017-08-18T23:43:59.720Z,13.20
2017-08-18T23:46:27.300Z,13.20
2017-08-18T23:48:54.867Z,13.10
2017-08-18T23:51:22.814Z,13.10
2017-08-18T23:53:50.352Z,13.00
2017-08-18T23:56:17.977Z,13.00
2017-08-18T23:58:46.302Z,12.90
